sensor_id;sensor_type;location;lat;lon;timestamp;pressure;altitude;pressure_sealevel;temperature;humidity
71476;BME280;59286;59.274;17.974;2023-06-22T00:01:08;100746.19;;;18.83;80.36
71476;BME280;59286;59.274;17.974;2023-06-22T00:03:34;100747.72;;;18.84;80.53
71476;BME280;59286;59.274;17.974;2023-06-22T00:05:59;100741.25;;;18.85;80.47
71476;BME280;59286;59.274;17.974;2023-06-22T00:08:24;100741.97;;;18.82;80.75
71476;BME280;59286;59.274;17.974;2023-06-22T00:10:50;100735.44;;;18.80;80.92
71476;BME280;59286;59.274;17.974;2023-06-22T00:13:16;100730.84;;;18.77;80.86
71476;BME280;59286;59.274;17.974;2023-06-22T00:15:43;100730.06;;;18.76;81.50
71476;BME280;59286;59.274;17.974;2023-06-22T00:18:10;100726.38;;;18.81;81.52
71476;BME280;59286;59.274;17.974;2023-06-22T00:20:36;100743.91;;;18.85;81.55
71476;BME280;59286;59.274;17.974;2023-06-22T00:23:05;100744.34;;;18.87;81.09
71476;BME280;59286;59.274;17.974;2023-06-22T00:25:42;100739.81;;;18.88;81.46
71476;BME280;59286;59.274;17.974;2023-06-22T00:28:08;100736.66;;;18.82;81.53
71476;BME280;59286;59.274;17.974;2023-06-22T00:30:34;100745.56;;;18.90;81.81
71476;BME280;59286;59.274;17.974;2023-06-22T00:33:00;100742.13;;;18.89;81.82
71476;BME280;59286;59.274;17.974;2023-06-22T00:35:26;100741.69;;;18.87;82.15
71476;BME280;59286;59.274;17.974;2023-06-22T00:37:57;100743.41;;;18.95;81.89
71476;BME280;59286;59.274;17.974;2023-06-22T00:40:33;100742.63;;;18.95;81.74
71476;BME280;59286;59.274;17.974;2023-06-22T00:42:59;100747.13;;;18.91;82.17
71476;BME280;59286;59.274;17.974;2023-06-22T00:45:25;100742.03;;;18.86;82.51
71476;BME280;59286;59.274;17.974;2023-06-22T00:47:57;100741.03;;;18.90;82.12
71476;BME280;59286;59.274;17.974;2023-06-22T00:50:26;100736.81;;;18.89;82.29
71476;BME280;59286;59.274;17.974;2023-06-22T00:52:55;100740.31;;;18.93;82.64
71476;BME280;59286;59.274;17.974;2023-06-22T00:55:26;100742.56;;;18.91;82.73
71476;BME280;59286;59.274;17.974;2023-06-22T00:57:52;100735.34;;;18.92;82.78
71476;BME280;59286;59.274;17.974;2023-06-22T01:00:23;100727.75;;;18.90;82.58
71476;BME280;59286;59.274;17.974;2023-06-22T01:02:50;100728.31;;;18.99;82.83
71476;BME280;59286;59.274;17.974;2023-06-22T01:05:17;100740.38;;;18.97;83.20
71476;BME280;59286;59.274;17.974;2023-06-22T01:10:48;100735.06;;;18.97;83.60
71476;BME280;59286;59.274;17.974;2023-06-22T01:13:29;100742.88;;;19.05;83.78
71476;BME280;59286;59.274;17.974;2023-06-22T01:16:14;100736.72;;;19.01;84.49
71476;BME280;59286;59.274;17.974;2023-06-22T01:18:42;100739.09;;;19.06;84.23
71476;BME280;59286;59.274;17.974;2023-06-22T01:21:10;100727.34;;;19.07;84.20
71476;BME280;59286;59.274;17.974;2023-06-22T01:26:42;100728.88;;;19.08;84.83
71476;BME280;59286;59.274;17.974;2023-06-22T01:29:11;100729.38;;;19.14;84.49
71476;BME280;59286;59.274;17.974;2023-06-22T01:31:39;100724.69;;;19.07;85.06
71476;BME280;59286;59.274;17.974;2023-06-22T01:34:06;100733.50;;;19.11;84.85
71476;BME280;59286;59.274;17.974;2023-06-22T01:36:33;100729.75;;;19.12;85.33
71476;BME280;59286;59.274;17.974;2023-06-22T01:39:00;100727.84;;;19.13;85.54
71476;BME280;59286;59.274;17.974;2023-06-22T01:41:28;100731.63;;;19.12;86.16
71476;BME280;59286;59.274;17.974;2023-06-22T01:43:55;100728.09;;;19.08;86.05
71476;BME280;59286;59.274;17.974;2023-06-22T01:46:21;100733.16;;;19.13;86.26
71476;BME280;59286;59.274;17.974;2023-06-22T01:48:47;100726.66;;;19.10;86.66
71476;BME280;59286;59.274;17.974;2023-06-22T01:51:13;100721.69;;;19.09;87.34
71476;BME280;59286;59.274;17.974;2023-06-22T01:53:39;100726.16;;;19.05;87.09
71476;BME280;59286;59.274;17.974;2023-06-22T01:56:04;100725.13;;;19.09;87.36
71476;BME280;59286;59.274;17.974;2023-06-22T01:58:31;100726.38;;;19.15;87.30
71476;BME280;59286;59.274;17.974;2023-06-22T02:01:05;100721.53;;;19.02;87.68
71476;BME280;59286;59.274;17.974;2023-06-22T02:03:38;100723.78;;;19.00;87.93
71476;BME280;59286;59.274;17.974;2023-06-22T02:06:08;100729.03;;;18.96;88.68
71476;BME280;59286;59.274;17.974;2023-06-22T02:08:40;100740.16;;;19.02;88.58
71476;BME280;59286;59.274;17.974;2023-06-22T02:11:08;100736.00;;;19.04;88.34
71476;BME280;59286;59.274;17.974;2023-06-22T02:13:36;100730.00;;;19.07;88.35
71476;BME280;59286;59.274;17.974;2023-06-22T02:16:02;100731.91;;;19.07;88.38
71476;BME280;59286;59.274;17.974;2023-06-22T02:18:28;100730.69;;;19.04;88.71
71476;BME280;59286;59.274;17.974;2023-06-22T02:20:53;100736.72;;;19.01;89.20
71476;BME280;59286;59.274;17.974;2023-06-22T02:23:19;100735.00;;;18.93;88.94
71476;BME280;59286;59.274;17.974;2023-06-22T02:25:45;100736.72;;;19.01;89.25
71476;BME280;59286;59.274;17.974;2023-06-22T02:28:11;100732.78;;;18.95;88.84
71476;BME280;59286;59.274;17.974;2023-06-22T02:30:36;100730.91;;;18.96;89.28
71476;BME280;59286;59.274;17.974;2023-06-22T02:33:01;100730.69;;;19.04;88.91
71476;BME280;59286;59.274;17.974;2023-06-22T02:35:28;100743.13;;;19.00;88.95
71476;BME280;59286;59.274;17.974;2023-06-22T02:37:58;100739.09;;;19.06;89.28
71476;BME280;59286;59.274;17.974;2023-06-22T02:40:24;100723.44;;;19.01;89.10
71476;BME280;59286;59.274;17.974;2023-06-22T02:42:50;100735.25;;;19.04;89.18
71476;BME280;59286;59.274;17.974;2023-06-22T02:45:15;100744.25;;;18.99;89.33
71476;BME280;59286;59.274;17.974;2023-06-22T02:47:41;100718.47;;;19.00;89.08
71476;BME280;59286;59.274;17.974;2023-06-22T02:50:06;100731.75;;;19.00;89.67
71476;BME280;59286;59.274;17.974;2023-06-22T02:52:32;100725.50;;;18.92;90.45
71476;BME280;59286;59.274;17.974;2023-06-22T02:54:57;100723.09;;;18.87;90.59
71476;BME280;59286;59.274;17.974;2023-06-22T02:57:22;100733.28;;;18.85;90.83
71476;BME280;59286;59.274;17.974;2023-06-22T02:59:48;100732.63;;;18.88;90.83
71476;BME280;59286;59.274;17.974;2023-06-22T03:02:13;100723.88;;;18.88;90.56
71476;BME280;59286;59.274;17.974;2023-06-22T03:04:38;100740.94;;;18.87;91.28
71476;BME280;59286;59.274;17.974;2023-06-22T03:07:04;100741.03;;;18.90;90.69
71476;BME280;59286;59.274;17.974;2023-06-22T03:09:29;100742.44;;;19.03;90.59
71476;BME280;59286;59.274;17.974;2023-06-22T03:11:55;100746.56;;;19.01;90.52
71476;BME280;59286;59.274;17.974;2023-06-22T03:14:21;100747.41;;;19.05;90.45
71476;BME280;59286;59.274;17.974;2023-06-22T03:16:46;100758.97;;;19.12;90.18
71476;BME280;59286;59.274;17.974;2023-06-22T03:19:12;100745.69;;;19.12;90.53
71476;BME280;59286;59.274;17.974;2023-06-22T03:21:38;100747.63;;;19.15;90.10
71476;BME280;59286;59.274;17.974;2023-06-22T03:24:07;100749.97;;;19.17;90.03
71476;BME280;59286;59.274;17.974;2023-06-22T03:26:32;100748.47;;;19.19;90.08
71476;BME280;59286;59.274;17.974;2023-06-22T03:28:58;100744.53;;;19.13;90.20
71476;BME280;59286;59.274;17.974;2023-06-22T03:31:23;100748.75;;;19.14;89.90
71476;BME280;59286;59.274;17.974;2023-06-22T03:33:50;100739.66;;;19.15;89.59
71476;BME280;59286;59.274;17.974;2023-06-22T03:36:16;100753.31;;;19.14;89.79
71476;BME280;59286;59.274;17.974;2023-06-22T03:38:46;100746.53;;;19.16;89.46
71476;BME280;59286;59.274;17.974;2023-06-22T03:41:12;100753.31;;;19.14;89.67
71476;BME280;59286;59.274;17.974;2023-06-22T03:43:37;100743.72;;;19.09;89.47
71476;BME280;59286;59.274;17.974;2023-06-22T03:46:03;100753.38;;;19.17;89.45
71476;BME280;59286;59.274;17.974;2023-06-22T03:48:28;100736.94;;;19.12;89.29
71476;BME280;59286;59.274;17.974;2023-06-22T03:50:53;100757.34;;;19.08;89.65
71476;BME280;59286;59.274;17.974;2023-06-22T03:53:18;100754.06;;;19.14;89.59
71476;BME280;59286;59.274;17.974;2023-06-22T03:55:52;100751.28;;;19.26;88.90
71476;BME280;59286;59.274;17.974;2023-06-22T03:58:21;100745.81;;;19.35;88.72
71476;BME280;59286;59.274;17.974;2023-06-22T04:00:47;100746.03;;;19.46;87.56
71476;BME280;59286;59.274;17.974;2023-06-22T04:03:13;100744.97;;;19.50;87.42
71476;BME280;59286;59.274;17.974;2023-06-22T04:05:39;100752.75;;;19.59;86.37
71476;BME280;59286;59.274;17.974;2023-06-22T04:08:05;100746.22;;;19.56;86.17
71476;BME280;59286;59.274;17.974;2023-06-22T04:10:31;100732.53;;;19.54;85.82
71476;BME280;59286;59.274;17.974;2023-06-22T04:12:56;100751.13;;;19.73;85.30
71476;BME280;59286;59.274;17.974;2023-06-22T04:15:22;100757.34;;;19.81;85.16
71476;BME280;59286;59.274;17.974;2023-06-22T04:17:47;100750.97;;;19.85;83.35
71476;BME280;59286;59.274;17.974;2023-06-22T04:20:12;100764.28;;;19.85;83.67
71476;BME280;59286;59.274;17.974;2023-06-22T04:22:38;100752.09;;;19.84;83.26
71476;BME280;59286;59.274;17.974;2023-06-22T04:25:05;100758.19;;;19.85;81.96
71476;BME280;59286;59.274;17.974;2023-06-22T04:27:30;100750.63;;;19.87;81.73
71476;BME280;59286;59.274;17.974;2023-06-22T04:29:56;100755.56;;;20.07;80.67
71476;BME280;59286;59.274;17.974;2023-06-22T04:32:21;100756.72;;;20.29;78.58
71476;BME280;59286;59.274;17.974;2023-06-22T04:34:46;100753.88;;;20.41;78.51
71476;BME280;59286;59.274;17.974;2023-06-22T04:37:12;100754.41;;;20.50;76.86
71476;BME280;59286;59.274;17.974;2023-06-22T04:39:41;100756.66;;;20.71;76.81
71476;BME280;59286;59.274;17.974;2023-06-22T04:42:07;100753.69;;;21.02;76.26
71476;BME280;59286;59.274;17.974;2023-06-22T04:44:32;100735.91;;;21.09;75.33
71476;BME280;59286;59.274;17.974;2023-06-22T04:46:59;100754.75;;;20.97;75.64
71476;BME280;59286;59.274;17.974;2023-06-22T04:49:34;100757.84;;;20.99;75.73
71476;BME280;59286;59.274;17.974;2023-06-22T04:52:04;100759.88;;;20.83;75.52
71476;BME280;59286;59.274;17.974;2023-06-22T04:54:31;100762.84;;;20.78;75.44
71476;BME280;59286;59.274;17.974;2023-06-22T04:57:00;100759.72;;;20.73;75.74
71476;BME280;59286;59.274;17.974;2023-06-22T04:59:27;100763.56;;;20.75;75.89
71476;BME280;59286;59.274;17.974;2023-06-22T05:01:58;100756.00;;;20.77;76.16
71476;BME280;59286;59.274;17.974;2023-06-22T05:04:24;100758.94;;;20.72;75.56
71476;BME280;59286;59.274;17.974;2023-06-22T05:06:53;100761.88;;;20.64;75.69
71476;BME280;59286;59.274;17.974;2023-06-22T05:09:19;100771.75;;;20.89;75.12
71476;BME280;59286;59.274;17.974;2023-06-22T05:11:45;100756.28;;;20.98;74.18
71476;BME280;59286;59.274;17.974;2023-06-22T05:14:11;100768.66;;;21.10;74.33
71476;BME280;59286;59.274;17.974;2023-06-22T05:16:36;100762.84;;;21.31;73.41
71476;BME280;59286;59.274;17.974;2023-06-22T05:19:02;100753.84;;;21.42;73.84
71476;BME280;59286;59.274;17.974;2023-06-22T05:21:31;100752.75;;;21.47;71.99
71476;BME280;59286;59.274;17.974;2023-06-22T05:23:57;100758.41;;;21.42;72.80
71476;BME280;59286;59.274;17.974;2023-06-22T05:26:27;100759.16;;;21.39;72.71
71476;BME280;59286;59.274;17.974;2023-06-22T05:28:53;100753.78;;;21.35;73.17
71476;BME280;59286;59.274;17.974;2023-06-22T05:31:18;100746.94;;;21.38;73.42
71476;BME280;59286;59.274;17.974;2023-06-22T05:33:48;100756.78;;;21.34;73.26
71476;BME280;59286;59.274;17.974;2023-06-22T05:36:14;100743.31;;;21.53;73.09
71476;BME280;59286;59.274;17.974;2023-06-22T05:38:40;100760.22;;;21.67;72.53
71476;BME280;59286;59.274;17.974;2023-06-22T05:41:06;100749.09;;;21.29;72.63
71476;BME280;59286;59.274;17.974;2023-06-22T05:43:31;100758.69;;;21.03;73.17
71476;BME280;59286;59.274;17.974;2023-06-22T05:45:57;100748.16;;;20.88;74.64
71476;BME280;59286;59.274;17.974;2023-06-22T05:48:22;100767.00;;;20.76;74.99
71476;BME280;59286;59.274;17.974;2023-06-22T05:50:48;100767.66;;;20.69;75.63
71476;BME280;59286;59.274;17.974;2023-06-22T05:53:13;100760.25;;;20.59;76.30
71476;BME280;59286;59.274;17.974;2023-06-22T05:55:39;100760.25;;;20.59;76.48
71476;BME280;59286;59.274;17.974;2023-06-22T05:58:04;100758.69;;;20.55;76.62
71476;BME280;59286;59.274;17.974;2023-06-22T06:00:30;100762.81;;;20.52;76.47
71476;BME280;59286;59.274;17.974;2023-06-22T06:02:55;100762.50;;;20.57;75.87
71476;BME280;59286;59.274;17.974;2023-06-22T06:05:21;100764.22;;;20.69;75.52
71476;BME280;59286;59.274;17.974;2023-06-22T06:07:48;100761.72;;;20.79;75.57
71476;BME280;59286;59.274;17.974;2023-06-22T06:10:13;100765.63;;;20.85;73.89
71476;BME280;59286;59.274;17.974;2023-06-22T06:12:39;100767.16;;;20.86;74.04
71476;BME280;59286;59.274;17.974;2023-06-22T06:15:04;100767.16;;;20.86;73.46
71476;BME280;59286;59.274;17.974;2023-06-22T06:17:30;100773.59;;;20.85;72.97
71476;BME280;59286;59.274;17.974;2023-06-22T06:19:55;100772.53;;;21.12;72.05
71476;BME280;59286;59.274;17.974;2023-06-22T06:22:21;100762.47;;;21.62;71.63
71476;BME280;59286;59.274;17.974;2023-06-22T06:24:48;100774.34;;;22.01;68.59
71476;BME280;59286;59.274;17.974;2023-06-22T06:27:13;100761.41;;;22.03;68.56
71476;BME280;59286;59.274;17.974;2023-06-22T06:29:39;100769.78;;;22.01;68.06
71476;BME280;59286;59.274;17.974;2023-06-22T06:32:04;100771.72;;;21.71;68.30
71476;BME280;59286;59.274;17.974;2023-06-22T06:34:30;100771.66;;;21.35;69.26
71476;BME280;59286;59.274;17.974;2023-06-22T06:36:55;100783.00;;;21.28;69.86
71476;BME280;59286;59.274;17.974;2023-06-22T06:39:20;100778.84;;;21.31;69.48
71476;BME280;59286;59.274;17.974;2023-06-22T06:41:46;100781.00;;;21.81;69.25
71476;BME280;59286;59.274;17.974;2023-06-22T06:44:11;100777.50;;;22.10;67.58
71476;BME280;59286;59.274;17.974;2023-06-22T06:46:37;100786.78;;;22.23;67.08
71476;BME280;59286;59.274;17.974;2023-06-22T06:49:03;100781.84;;;22.25;67.36
71476;BME280;59286;59.274;17.974;2023-06-22T06:51:28;100789.00;;;22.17;66.66
71476;BME280;59286;59.274;17.974;2023-06-22T06:53:53;100787.22;;;21.92;66.28
71476;BME280;59286;59.274;17.974;2023-06-22T06:56:19;100777.06;;;21.71;67.45
71476;BME280;59286;59.274;17.974;2023-06-22T06:58:44;100781.84;;;21.88;67.84
71476;BME280;59286;59.274;17.974;2023-06-22T07:01:13;100792.53;;;21.88;66.33
71476;BME280;59286;59.274;17.974;2023-06-22T07:03:38;100787.28;;;21.95;66.89
71476;BME280;59286;59.274;17.974;2023-06-22T07:06:04;100786.59;;;22.02;66.77
71476;BME280;59286;59.274;17.974;2023-06-22T07:08:29;100794.03;;;22.23;66.68
71476;BME280;59286;59.274;17.974;2023-06-22T07:10:55;100785.22;;;22.19;65.74
71476;BME280;59286;59.274;17.974;2023-06-22T07:13:21;100791.91;;;21.98;66.05
71476;BME280;59286;59.274;17.974;2023-06-22T07:15:46;100810.22;;;22.00;66.39
71476;BME280;59286;59.274;17.974;2023-06-22T07:18:11;100801.47;;;22.03;65.33
71476;BME280;59286;59.274;17.974;2023-06-22T07:20:37;100799.84;;;21.95;65.15
71476;BME280;59286;59.274;17.974;2023-06-22T07:23:02;100804.81;;;21.93;65.09
71476;BME280;59286;59.274;17.974;2023-06-22T07:25:28;100808.25;;;21.67;65.36
71476;BME280;59286;59.274;17.974;2023-06-22T07:28:04;100803.25;;;21.33;65.97
71476;BME280;59286;59.274;17.974;2023-06-22T07:30:31;100804.59;;;21.19;66.90
71476;BME280;59286;59.274;17.974;2023-06-22T07:32:57;100801.16;;;21.19;66.08
71476;BME280;59286;59.274;17.974;2023-06-22T07:35:23;100804.25;;;21.21;67.17
71476;BME280;59286;59.274;17.974;2023-06-22T07:37:48;100809.91;;;20.93;67.57
71476;BME280;59286;59.274;17.974;2023-06-22T07:40:14;100815.25;;;20.93;67.52
71476;BME280;59286;59.274;17.974;2023-06-22T07:42:39;100807.66;;;20.95;67.89
71476;BME280;59286;59.274;17.974;2023-06-22T07:45:06;100801.81;;;21.09;68.01
71476;BME280;59286;59.274;17.974;2023-06-22T07:47:33;100796.47;;;21.09;67.46
71476;BME280;59286;59.274;17.974;2023-06-22T07:50:00;100793.56;;;21.21;67.18
71476;BME280;59286;59.274;17.974;2023-06-22T07:52:27;100787.97;;;21.30;67.46
71476;BME280;59286;59.274;17.974;2023-06-22T07:54:53;100780.94;;;21.44;66.75
71476;BME280;59286;59.274;17.974;2023-06-22T07:57:19;100786.88;;;21.64;66.53
71476;BME280;59286;59.274;17.974;2023-06-22T07:59:44;100784.88;;;21.83;65.95
71476;BME280;59286;59.274;17.974;2023-06-22T08:02:10;100783.59;;;22.07;64.62
71476;BME280;59286;59.274;17.974;2023-06-22T08:04:35;100778.38;;;22.61;64.26
71476;BME280;59286;59.274;17.974;2023-06-22T08:07:01;100784.44;;;23.13;63.38
71476;BME280;59286;59.274;17.974;2023-06-22T08:09:31;100790.19;;;23.18;61.34
71476;BME280;59286;59.274;17.974;2023-06-22T08:11:56;100786.88;;;23.35;60.85
71476;BME280;59286;59.274;17.974;2023-06-22T08:14:24;100781.59;;;23.49;60.88
71476;BME280;59286;59.274;17.974;2023-06-22T08:16:50;100775.47;;;23.42;59.91
71476;BME280;59286;59.274;17.974;2023-06-22T08:19:15;100789.22;;;23.44;59.38
71476;BME280;59286;59.274;17.974;2023-06-22T08:21:41;100776.81;;;23.15;60.32
71476;BME280;59286;59.274;17.974;2023-06-22T08:24:06;100778.91;;;22.84;60.60
71476;BME280;59286;59.274;17.974;2023-06-22T08:26:33;100772.13;;;22.97;60.81
71476;BME280;59286;59.274;17.974;2023-06-22T08:29:01;100775.25;;;23.06;59.83
71476;BME280;59286;59.274;17.974;2023-06-22T08:31:27;100780.00;;;23.31;60.27
71476;BME280;59286;59.274;17.974;2023-06-22T08:33:52;100769.28;;;23.31;58.81
71476;BME280;59286;59.274;17.974;2023-06-22T08:36:17;100777.00;;;23.46;60.19
71476;BME280;59286;59.274;17.974;2023-06-22T08:38:43;100775.47;;;23.42;58.92
71476;BME280;59286;59.274;17.974;2023-06-22T08:41:09;100791.16;;;23.47;59.58
71476;BME280;59286;59.274;17.974;2023-06-22T08:43:34;100780.78;;;23.38;59.48
71476;BME280;59286;59.274;17.974;2023-06-22T08:46:00;100784.97;;;23.32;58.84
71476;BME280;59286;59.274;17.974;2023-06-22T08:48:26;100791.59;;;23.63;59.17
71476;BME280;59286;59.274;17.974;2023-06-22T08:50:51;100791.97;;;23.65;58.93
71476;BME280;59286;59.274;17.974;2023-06-22T08:53:16;100790.16;;;23.90;58.34
71476;BME280;59286;59.274;17.974;2023-06-22T08:55:41;100782.94;;;24.08;57.21
71476;BME280;59286;59.274;17.974;2023-06-22T08:58:07;100783.38;;;24.31;57.60
71476;BME280;59286;59.274;17.974;2023-06-22T09:00:32;100786.03;;;24.66;55.74
71476;BME280;59286;59.274;17.974;2023-06-22T09:03:00;100778.03;;;24.73;56.07
71476;BME280;59286;59.274;17.974;2023-06-22T09:05:25;100780.28;;;25.00;54.51
71476;BME280;59286;59.274;17.974;2023-06-22T09:07:53;100763.41;;;25.10;53.80
71476;BME280;59286;59.274;17.974;2023-06-22T09:10:21;100779.81;;;25.26;53.55
71476;BME280;59286;59.274;17.974;2023-06-22T09:12:46;100780.16;;;25.49;53.35
71476;BME280;59286;59.274;17.974;2023-06-22T09:15:12;100777.09;;;25.36;51.34
71476;BME280;59286;59.274;17.974;2023-06-22T09:17:37;100763.31;;;25.45;53.34
71476;BME280;59286;59.274;17.974;2023-06-22T09:20:03;100766.75;;;25.49;51.42
71476;BME280;59286;59.274;17.974;2023-06-22T09:22:31;100776.28;;;25.60;50.62
71476;BME280;59286;59.274;17.974;2023-06-22T09:24:57;100762.13;;;25.53;51.94
71476;BME280;59286;59.274;17.974;2023-06-22T09:27:22;100758.94;;;25.72;52.01
71476;BME280;59286;59.274;17.974;2023-06-22T09:29:48;100767.75;;;25.76;50.56
71476;BME280;59286;59.274;17.974;2023-06-22T09:32:14;100774.69;;;25.66;50.39
71476;BME280;59286;59.274;17.974;2023-06-22T09:34:39;100764.44;;;25.47;49.54
71476;BME280;59286;59.274;17.974;2023-06-22T09:37:05;100773.28;;;25.41;50.05
71476;BME280;59286;59.274;17.974;2023-06-22T09:39:30;100767.13;;;25.51;50.14
71476;BME280;59286;59.274;17.974;2023-06-22T09:41:58;100762.47;;;25.62;48.98
71476;BME280;59286;59.274;17.974;2023-06-22T09:44:24;100766.72;;;25.52;48.99
71476;BME280;59286;59.274;17.974;2023-06-22T09:46:49;100758.94;;;25.72;50.46
71476;BME280;59286;59.274;17.974;2023-06-22T09:49:14;100759.34;;;25.70;49.55
71476;BME280;59286;59.274;17.974;2023-06-22T09:51:40;100748.72;;;25.46;48.64
71476;BME280;59286;59.274;17.974;2023-06-22T09:54:05;100759.06;;;25.44;50.56
71476;BME280;59286;59.274;17.974;2023-06-22T09:56:30;100767.84;;;25.55;48.95
71476;BME280;59286;59.274;17.974;2023-06-22T09:58:56;100757.13;;;25.48;48.66
71476;BME280;59286;59.274;17.974;2023-06-22T10:01:21;100759.44;;;25.53;48.03
71476;BME280;59286;59.274;17.974;2023-06-22T10:03:47;100753.34;;;25.45;47.91
71476;BME280;59286;59.274;17.974;2023-06-22T10:06:13;100754.06;;;25.53;49.50
71476;BME280;59286;59.274;17.974;2023-06-22T10:08:38;100742.59;;;25.38;49.78
71476;BME280;59286;59.274;17.974;2023-06-22T10:11:04;100733.41;;;25.43;48.40
71476;BME280;59286;59.274;17.974;2023-06-22T10:13:29;100757.94;;;25.41;47.64
71476;BME280;59286;59.274;17.974;2023-06-22T10:15:54;100727.22;;;25.46;49.51
71476;BME280;59286;59.274;17.974;2023-06-22T10:18:20;100749.03;;;25.55;46.79
71476;BME280;59286;59.274;17.974;2023-06-22T10:20:47;100733.75;;;25.48;47.38
71476;BME280;59286;59.274;17.974;2023-06-22T10:23:13;100742.91;;;25.58;46.90
71476;BME280;59286;59.274;17.974;2023-06-22T10:25:38;100744.41;;;25.66;48.12
71476;BME280;59286;59.274;17.974;2023-06-22T10:28:04;100731.25;;;25.82;48.94
71476;BME280;59286;59.274;17.974;2023-06-22T10:30:29;100732.63;;;26.04;48.02
71476;BME280;59286;59.274;17.974;2023-06-22T10:32:54;100755.31;;;26.03;46.83
71476;BME280;59286;59.274;17.974;2023-06-22T10:35:20;100729.31;;;25.86;47.34
71476;BME280;59286;59.274;17.974;2023-06-22T10:37:46;100746.81;;;26.12;47.94
71476;BME280;59286;59.274;17.974;2023-06-22T10:40:15;100733.63;;;26.28;47.59
71476;BME280;59286;59.274;17.974;2023-06-22T10:42:41;100730.66;;;26.15;45.64
71476;BME280;59286;59.274;17.974;2023-06-22T10:45:08;100733.72;;;26.17;45.86
71476;BME280;59286;59.274;17.974;2023-06-22T10:47:34;100734.84;;;26.23;46.44
71476;BME280;59286;59.274;17.974;2023-06-22T10:49:59;100731.75;;;26.25;46.02
71476;BME280;59286;59.274;17.974;2023-06-22T10:52:25;100732.09;;;26.30;44.32
71476;BME280;59286;59.274;17.974;2023-06-22T10:54:50;100731.28;;;26.33;45.23
71476;BME280;59286;59.274;17.974;2023-06-22T10:57:15;100735.50;;;26.34;43.65
71476;BME280;59286;59.274;17.974;2023-06-22T10:59:41;100715.22;;;26.26;44.36
71476;BME280;59286;59.274;17.974;2023-06-22T11:02:06;100724.13;;;26.20;44.57
71476;BME280;59286;59.274;17.974;2023-06-22T11:04:31;100728.59;;;26.37;43.86
71476;BME280;59286;59.274;17.974;2023-06-22T11:06:57;100713.56;;;26.39;43.69
71476;BME280;59286;59.274;17.974;2023-06-22T11:09:22;100735.00;;;26.46;44.16
71476;BME280;59286;59.274;17.974;2023-06-22T11:11:48;100726.44;;;26.58;44.07
71476;BME280;59286;59.274;17.974;2023-06-22T11:14:14;100730.38;;;26.50;43.63
71476;BME280;59286;59.274;17.974;2023-06-22T11:16:40;100731.84;;;26.58;44.22
71476;BME280;59286;59.274;17.974;2023-06-22T11:19:05;100738.06;;;26.48;42.61
71476;BME280;59286;59.274;17.974;2023-06-22T11:21:31;100737.31;;;26.44;43.76
71476;BME280;59286;59.274;17.974;2023-06-22T11:23:57;100739.13;;;26.58;44.10
71476;BME280;59286;59.274;17.974;2023-06-22T11:26:23;100733.34;;;26.59;42.96
71476;BME280;59286;59.274;17.974;2023-06-22T11:28:48;100737.56;;;26.60;43.54
71476;BME280;59286;59.274;17.974;2023-06-22T11:31:14;100741.16;;;26.47;42.68
71476;BME280;59286;59.274;17.974;2023-06-22T11:33:39;100741.88;;;26.07;42.92
71476;BME280;59286;59.274;17.974;2023-06-22T11:36:05;100733.47;;;25.98;44.21
71476;BME280;59286;59.274;17.974;2023-06-22T11:38:30;100730.69;;;26.12;43.64
71476;BME280;59286;59.274;17.974;2023-06-22T11:40:58;100734.47;;;26.21;43.75
71476;BME280;59286;59.274;17.974;2023-06-22T11:43:23;100727.16;;;26.22;42.87
71476;BME280;59286;59.274;17.974;2023-06-22T11:45:49;100727.44;;;26.34;43.33
71476;BME280;59286;59.274;17.974;2023-06-22T11:48:14;100739.34;;;26.33;43.23
71476;BME280;59286;59.274;17.974;2023-06-22T11:50:40;100732.78;;;26.38;43.10
71476;BME280;59286;59.274;17.974;2023-06-22T11:53:05;100732.00;;;26.37;43.50
71476;BME280;59286;59.274;17.974;2023-06-22T11:55:30;100723.22;;;26.33;41.98
71476;BME280;59286;59.274;17.974;2023-06-22T11:57:57;100726.75;;;26.27;43.06
71476;BME280;59286;59.274;17.974;2023-06-22T12:00:25;100729.78;;;26.29;42.96
71476;BME280;59286;59.274;17.974;2023-06-22T12:02:51;100716.41;;;26.22;43.32
71476;BME280;59286;59.274;17.974;2023-06-22T12:05:19;100730.75;;;26.01;43.92
71476;BME280;59286;59.274;17.974;2023-06-22T12:07:45;100738.28;;;26.24;42.58
71476;BME280;59286;59.274;17.974;2023-06-22T12:10:11;100735.88;;;26.36;42.50
71476;BME280;59286;59.274;17.974;2023-06-22T12:12:36;100727.41;;;26.38;41.35
71476;BME280;59286;59.274;17.974;2023-06-22T12:15:01;100724.09;;;26.23;40.81
71476;BME280;59286;59.274;17.974;2023-06-22T12:17:29;100735.16;;;26.29;41.58
71476;BME280;59286;59.274;17.974;2023-06-22T12:19:55;100744.09;;;26.15;41.97
71476;BME280;59286;59.274;17.974;2023-06-22T12:22:20;100733.69;;;26.21;42.53
71476;BME280;59286;59.274;17.974;2023-06-22T12:24:45;100736.75;;;26.23;43.30
71476;BME280;59286;59.274;17.974;2023-06-22T12:27:10;100721.75;;;26.25;43.13
71476;BME280;59286;59.274;17.974;2023-06-22T12:29:36;100734.34;;;26.35;42.92
71476;BME280;59286;59.274;17.974;2023-06-22T12:32:01;100734.25;;;26.46;43.09
71476;BME280;59286;59.274;17.974;2023-06-22T12:34:27;100736.91;;;26.49;42.76
71476;BME280;59286;59.274;17.974;2023-06-22T12:36:52;100735.38;;;26.48;42.68
71476;BME280;59286;59.274;17.974;2023-06-22T12:39:19;100728.13;;;26.45;42.75
71476;BME280;59286;59.274;17.974;2023-06-22T12:41:45;100737.25;;;26.55;43.54